Airfield :
LOGIN :

Register | Disclaimer

   EN    FR    IT 

 










Legend :    VFR   Marginal VFR   IFR   Intensive IFR   Very Intensive IFR
Visi :
Ceiling :
>= 8 km
>= 3000ft
5 to 8 km
1000 to 3000 ft
1500m to 5 km
500 to 1000 ft
800 to 1500m
200 to 500 ft
< 800m
< 200 ft
Symbols :   Thunderstorms  Fog  Heavy snow  Heavy precipitations  Wind > 20 kt
SIGMETs :     Misc.  Thunderstorms  Icing  Turbulence  Mountain Waves  Volcanic Ashes






- Airport Elevation : 16 ft
- IATA code : EAS


LESO - San Sebastian Fuenterrabia

CURRENT METAR :
  • 211730Z 22005KT 180V260 9999 -RA SCT025 BKN035 14/14 Q1021

EXPIRED METARs :
  • 211700Z 21004KT 180V290 9999 SCT017 BKN040 15/14 Q1021
  • 211630Z 21007KT 180V260 9999 -RA SCT017 BKN025 15/14 Q1021
  • 211600Z 20006KT 110V270 9999 SCT013 BKN020 15/13 Q1021
  • 211530Z 30005KT 240V350 9999 SCT020TCU BKN040 16/14 Q1021
  • 211500Z 29006KT 230V360 9999 SCT020TCU BKN030 16/14 Q1021
  • 211430Z 29006G16KT 230V350 9999 FEW025 BKN030 17/12 Q1021

TAF TAF LESO
Valid from the 21 at 18:00 until the 22 at 18:00 UTC


211700Z 2118/2218 25006KT 9000 SCT018 BKN025 TX16/2214Z TN13/2218Z
PROB40
TEMPO 2118/2203 4000 RA BKN012 SCT030TCU
TEMPO 2203/2210 3000 RA SHRA BKN010 BKN020TCU
PROB30
TEMPO 2204/2208 1500 +RA BKN005
PROB30
TEMPO 2209/2213 01010KT RA FEW030TCU



MET'MAP, your aeronautical weather chart ! - Copyright ORBIFLY December 2007 - Disclaimer

ORBIFLY MET'MAP TEAM :

Programming & Development : Alexandra Zaïnal
Concept & original design : Baudouin d'Aumeries
Assistance for programming : Marc-Olivier Méhu
Technical & hardware support : Manuel Goepfert

Contact : metmap@orbifly.com




SOURCES & CREDITS :

   NOAA